Time;durP1;ratioP1;P1;durP2;ratioP2;P2;SDS_P1;SDS_P2;PMS_P1;PMS_P2;Temp;Humidity;BMP_temperature;BMP_pressure;BME280_temperature;BME280_humidity;BME280_pressure;Samples;Min_cycle;Max_cycle;Signal;HPM_P1;HPM_P2
2023/02/13 00:00:11;;;;;;;38.00;23.95;;;;;;;3.38;67.63;100413.13;5063240;28;20436;-69
2023/02/13 00:02:36;;;;;;;38.20;23.70;;;;;;;3.40;67.60;100408.75;5060884;28;20037;-69
2023/02/13 00:05:02;;;;;;;37.13;22.85;;;;;;;3.38;68.10;100424.25;5062033;28;20070;-68
2023/02/13 00:07:27;;;;;;;34.58;22.20;;;;;;;3.20;69.28;100410.28;5043128;28;20537;-68
2023/02/13 00:09:53;;;;;;;36.85;22.52;;;;;;;3.21;69.84;100416.28;5044251;28;20738;-68
2023/02/13 00:12:18;;;;;;;38.15;22.13;;;;;;;2.99;69.95;100369.91;5050516;28;20401;-68
2023/02/13 00:14:44;;;;;;;34.50;22.23;;;;;;;2.98;70.54;100358.81;5054197;28;20020;-68
2023/02/13 00:17:09;;;;;;;38.20;23.27;;;;;;;3.22;70.04;100394.81;5071566;28;20035;-68
2023/02/13 00:19:35;;;;;;;39.28;23.95;;;;;;;3.24;70.14;100413.59;5052646;28;20107;-68
2023/02/13 00:22:00;;;;;;;35.03;23.17;;;;;;;3.31;71.03;100406.53;5076766;28;20038;-68
2023/02/13 00:24:26;;;;;;;38.33;23.58;;;;;;;3.24;70.87;100391.28;5064255;28;20075;-68
2023/02/13 00:26:51;;;;;;;34.08;22.98;;;;;;;3.34;71.87;100421.81;5044899;28;20037;-68
2023/02/13 00:29:17;;;;;;;36.88;22.45;;;;;;;3.25;73.09;100410.97;5048032;28;20119;-68
2023/02/13 00:31:42;;;;;;;33.08;21.20;;;;;;;3.18;74.30;100398.41;5054231;28;20032;-68
2023/02/13 00:34:08;;;;;;;33.90;21.75;;;;;;;3.28;74.39;100410.03;5046836;28;20516;-68
2023/02/13 00:36:33;;;;;;;33.67;21.63;;;;;;;3.38;75.21;100407.97;5046869;28;20054;-68
2023/02/13 00:38:58;;;;;;;33.53;21.48;;;;;;;3.13;74.91;100344.56;5054246;28;20039;-68
2023/02/13 00:41:24;;;;;;;31.83;21.40;;;;;;;3.49;73.70;100418.72;5059978;28;20032;-68
2023/02/13 00:43:49;;;;;;;32.03;20.92;;;;;;;3.44;74.19;100415.47;5041023;28;20024;-68
2023/02/13 00:46:16;;;;;;;34.20;22.85;;;;;;;3.51;73.49;100424.63;5062868;28;20031;-68
2023/02/13 00:48:41;;;;;;;31.02;21.48;;;;;;;3.53;73.22;100424.59;5046374;28;20102;-68
2023/02/13 00:51:08;;;;;;;35.42;22.85;;;;;;;3.46;73.80;100422.22;5067327;28;20437;-68
2023/02/13 00:53:34;;;;;;;34.30;22.30;;;;;;;3.56;73.41;100425.31;5054814;28;20464;-68
2023/02/13 00:56:00;;;;;;;34.60;21.10;;;;;;;3.52;73.69;100420.31;5058713;28;20028;-69
2023/02/13 00:58:25;;;;;;;34.30;21.17;;;;;;;3.17;73.61;100378.72;5054199;28;20066;-68
2023/02/13 01:00:52;;;;;;;34.22;21.75;;;;;;;3.18;73.53;100436.97;5063123;28;20116;-68
2023/02/13 01:03:18;;;;;;;33.58;21.63;;;;;;;2.82;73.52;100435.56;5048772;28;20519;-68
2023/02/13 01:05:44;;;;;;;32.72;21.35;;;;;;;2.96;72.91;100453.09;5045529;28;20028;-68
2023/02/13 01:08:10;;;;;;;36.30;21.08;;;;;;;2.60;72.75;100399.47;5058436;28;20032;-68
2023/02/13 01:10:37;;;;;;;35.72;20.65;;;;;;;2.75;72.71;100436.66;5032560;28;20060;-68
2023/02/13 01:13:02;;;;;;;36.28;22.52;;;;;;;2.88;72.26;100460.22;5053608;28;20035;-68
2023/02/13 01:15:28;;;;;;;33.65;21.98;;;;;;;2.82;71.89;100460.44;5044901;28;20033;-68
2023/02/13 01:17:56;;;;;;;31.27;20.42;;;;;;;2.71;72.31;100458.22;5046236;28;20621;-68
2023/02/13 01:20:22;;;;;;;31.63;19.92;;;;;;;2.72;71.66;100467.59;5049037;28;20080;-68
2023/02/13 01:22:47;;;;;;;34.55;21.92;;;;;;;2.67;71.86;100461.78;5047703;28;20039;-68
2023/02/13 01:25:13;;;;;;;32.28;21.95;;;;;;;2.74;71.47;100465.81;5053565;28;20029;-68
2023/02/13 01:27:38;;;;;;;35.65;22.23;;;;;;;2.75;71.16;100472.63;5056956;28;20032;-68
2023/02/13 01:30:10;;;;;;;36.00;21.63;;;;;;;2.81;70.10;100467.31;5038821;28;20036;-68
2023/02/13 01:32:36;;;;;;;33.70;21.65;;;;;;;2.74;70.49;100462.41;5057235;28;20575;-68
2023/02/13 01:35:02;;;;;;;35.03;21.02;;;;;;;2.80;70.00;100475.88;5035954;28;20082;-68
2023/02/13 01:37:28;;;;;;;31.80;21.52;;;;;;;2.76;70.32;100461.47;5047812;28;20117;-68
2023/02/13 01:39:55;;;;;;;35.72;21.55;;;;;;;2.66;70.50;100462.66;5056953;28;20029;-68
2023/02/13 01:42:25;;;;;;;33.20;21.58;;;;;;;2.63;70.65;100463.59;5036262;28;20033;-68
2023/02/13 01:44:55;;;;;;;35.67;21.27;;;;;;;2.56;70.92;100464.69;5057663;28;20044;-68
2023/02/13 01:47:40;;;;;;;33.20;20.98;;;;;;;2.57;71.10;100465.50;5043383;28;20193;-68
2023/02/13 01:50:11;;;;;;;34.05;22.10;;;;;;;2.29;70.81;100418.44;5061023;28;20034;-68
2023/02/13 01:52:40;;;;;;;32.92;20.95;;;;;;;2.41;71.55;100460.88;5048450;28;20076;-68
2023/02/13 01:55:06;;;;;;;35.35;22.73;;;;;;;2.44;71.50;100453.03;5033328;28;20112;-68
2023/02/13 01:57:32;;;;;;;37.70;22.92;;;;;;;2.07;71.82;100395.16;5059770;28;20135;-68
2023/02/13 02:00:10;;;;;;;33.40;22.00;;;;;;;2.53;71.77;100463.94;5043351;28;20107;-68
2023/02/13 02:02:39;;;;;;;33.60;21.73;;;;;;;2.40;71.37;100455.78;5048274;28;20108;-68
2023/02/13 02:05:05;;;;;;;34.47;20.70;;;;;;;2.38;71.23;100465.25;5042672;28;20065;-68
2023/02/13 02:07:32;;;;;;;36.47;21.48;;;;;;;2.29;71.39;100462.06;5039142;28;20090;-68
2023/02/13 02:10:08;;;;;;;36.88;21.30;;;;;;;2.25;72.19;100468.19;5042911;28;20037;-68
2023/02/13 02:12:43;;;;;;;31.63;20.90;;;;;;;1.91;72.34;100412.72;5022698;28;20026;-68
2023/02/13 02:15:09;;;;;;;33.40;20.30;;;;;;;1.92;72.21;100416.16;5027346;28;20147;-68
2023/02/13 02:17:35;;;;;;;38.15;21.77;;;;;;;2.00;72.46;100465.50;5030084;28;20042;-70
2023/02/13 02:20:16;;;;;;;36.28;22.00;;;;;;;1.96;72.74;100466.50;5015728;28;20131;-67
2023/02/13 02:22:56;;;;;;;38.20;22.38;;;;;;;1.75;72.78;100438.88;5030458;28;20067;-67
2023/02/13 02:25:43;;;;;;;34.00;21.45;;;;;;;1.92;73.12;100476.00;5035651;28;20033;-67
2023/02/13 02:28:35;;;;;;;34.58;22.52;;;;;;;2.01;72.25;100469.75;5034627;28;20037;-68
2023/02/13 02:31:38;;;;;;;33.05;21.48;;;;;;;2.14;72.21;100471.97;5021275;28;20031;-67
2023/02/13 02:34:22;;;;;;;32.67;21.15;;;;;;;1.30;72.10;100350.44;5031726;28;20025;-68
2023/02/13 02:37:10;;;;;;;35.20;21.55;;;;;;;1.97;71.98;100467.31;5036122;28;20190;-67
2023/02/13 02:39:53;;;;;;;34.28;21.48;;;;;;;1.67;72.26;100413.47;5022298;28;20037;-67
2023/02/13 02:42:44;;;;;;;33.42;21.27;;;;;;;1.41;72.76;100381.72;5022846;28;21458;-68
2023/02/13 02:45:18;;;;;;;33.03;20.38;;;;;;;1.70;72.58;100414.22;5041444;28;20029;-67
2023/02/13 02:50:55;;;;;;;33.72;20.98;;;;;;;2.05;71.95;100473.91;5034616;28;20401;-67
2023/02/13 02:53:27;;;;;;;34.38;21.60;;;;;;;2.02;71.75;100471.44;5032372;28;20778;-67
2023/02/13 02:56:24;;;;;;;34.00;21.33;;;;;;;1.72;72.47;100416.75;5035292;28;20678;-67
2023/02/13 03:07:21;;;;;;;32.15;20.10;;;;;;;1.64;73.36;100458.00;5039143;28;20691;-69
2023/02/13 03:13:19;;;;;;;34.78;20.90;;;;;;;1.81;73.20;100454.13;5062384;28;20102;-69
2023/02/13 03:24:45;;;;;;;33.20;21.05;;;;;;;1.77;73.06;100462.75;5069313;28;20105;-69
2023/02/13 03:30:05;;;;;;;31.67;19.58;;;;;;;1.49;73.17;100395.16;5059644;28;20032;-69
2023/02/13 03:30:37;;;;;;;31.27;19.70;;;;;;;1.62;73.46;100454.63;5063432;28;20782;-69
2023/02/13 03:33:21;;;;;;;32.63;19.17;;;;;;;1.40;74.44;100466.34;5068944;28;20028;-69
2023/02/13 03:38:48;;;;;;;31.50;20.02;;;;;;;1.47;74.13;100467.88;5059000;28;20070;-69
2023/02/13 03:41:24;;;;;;;37.50;20.35;;;;;;;1.37;74.52;100456.16;5071273;28;20020;-69
2023/02/13 03:43:58;;;;;;;34.35;20.80;;;;;;;1.27;74.99;100471.78;5052201;28;20031;-69
2023/02/13 03:46:25;;;;;;;30.33;19.75;;;;;;;1.31;75.31;100465.72;5058676;28;20020;-69
2023/02/13 03:51:51;;;;;;;31.73;18.77;;;;;;;1.53;74.72;100466.00;5065110;28;20084;-69
2023/02/13 04:00:08;;;;;;;29.35;18.27;;;;;;;1.29;75.27;100469.19;5063995;28;20046;-69
2023/02/13 04:02:39;;;;;;;33.80;20.40;;;;;;;1.20;75.63;100461.75;5044191;28;20065;-69
2023/02/13 04:05:10;;;;;;;33.25;19.77;;;;;;;1.08;76.56;100465.47;5032965;28;20066;-69
2023/02/13 04:07:35;;;;;;;33.47;19.92;;;;;;;0.74;76.67;100423.59;5040118;28;20020;-69
2023/02/13 04:10:13;;;;;;;31.75;18.95;;;;;;;1.06;76.69;100470.63;5062502;28;20032;-69
2023/02/13 04:13:00;;;;;;;29.60;19.02;;;;;;;1.02;76.97;100469.00;5043714;28;20614;-69
2023/02/13 04:15:51;;;;;;;31.25;18.50;;;;;;;1.07;76.16;100477.44;5059108;28;20024;-70
2023/02/13 04:18:26;;;;;;;30.73;18.45;;;;;;;0.75;76.24;100422.75;5054719;28;20091;-69
2023/02/13 04:20:51;;;;;;;30.10;18.02;;;;;;;0.96;77.16;100480.25;5035030;28;20025;-69
2023/02/13 04:23:17;;;;;;;31.60;19.73;;;;;;;0.99;76.65;100464.00;5043772;28;20561;-69
2023/02/13 04:25:46;;;;;;;31.67;19.30;;;;;;;0.93;76.87;100462.44;5049099;28;20028;-69
2023/02/13 04:28:11;;;;;;;27.37;17.37;;;;;;;0.57;76.83;100401.00;5050337;28;20588;-69
2023/02/13 04:30:37;;;;;;;31.40;18.52;;;;;;;1.13;76.68;100471.31;5078667;28;20035;-69
2023/02/13 04:33:02;;;;;;;32.17;19.25;;;;;;;1.24;76.80;100471.91;5076623;28;20027;-70
2023/02/13 04:35:28;;;;;;;32.58;19.85;;;;;;;1.20;75.66;100457.44;5059182;28;20713;-69
2023/02/13 04:37:53;;;;;;;32.35;19.27;;;;;;;0.67;76.06;100419.50;5043598;28;20445;-69
2023/02/13 04:40:18;;;;;;;32.95;20.20;;;;;;;1.01;76.08;100461.41;5064070;28;20032;-69
2023/02/13 04:42:47;;;;;;;29.20;17.02;;;;;;;0.93;75.64;100443.63;5044842;28;20021;-69
2023/02/13 04:45:12;;;;;;;29.92;17.65;;;;;;;0.97;76.14;100460.63;5043885;28;20051;-69
2023/02/13 04:47:37;;;;;;;32.08;19.42;;;;;;;1.07;76.27;100461.22;5048185;28;20038;-69
2023/02/13 04:50:03;;;;;;;34.83;19.55;;;;;;;1.10;75.48;100463.72;5083875;28;20442;-69
2023/02/13 04:52:28;;;;;;;28.42;18.10;;;;;;;0.74;76.14;100404.84;5046453;28;20027;-69
2023/02/13 04:54:54;;;;;;;34.88;19.98;;;;;;;0.61;75.70;100393.25;5062139;28;20161;-69
2023/02/13 04:57:19;;;;;;;33.67;18.95;;;;;;;1.14;76.09;100470.44;5054467;28;20035;-69
2023/02/13 04:59:45;;;;;;;31.50;19.92;;;;;;;0.73;75.99;100410.84;5061832;28;20059;-69
2023/02/13 05:02:10;;;;;;;29.88;18.70;;;;;;;1.15;76.28;100482.38;5060708;28;20031;-69
2023/02/13 05:04:35;;;;;;;32.65;20.63;;;;;;;1.13;75.69;100472.16;5063914;28;20067;-69
2023/02/13 05:07:01;;;;;;;32.03;18.58;;;;;;;1.09;76.62;100462.84;5064124;28;20258;-69
2023/02/13 05:09:27;;;;;;;30.73;18.83;;;;;;;0.76;76.30;100413.31;5060790;28;20036;-69
2023/02/13 05:11:52;;;;;;;31.27;19.45;;;;;;;1.18;76.59;100476.31;5042239;28;20112;-69
2023/02/13 05:14:18;;;;;;;30.77;18.52;;;;;;;1.15;76.59;100456.75;5039375;28;20772;-69
2023/02/13 05:16:45;;;;;;;30.50;18.55;;;;;;;0.94;76.35;100435.06;5037954;28;20094;-70
2023/02/13 05:19:10;;;;;;;29.23;18.90;;;;;;;0.99;76.78;100464.00;5058491;28;20031;-69
2023/02/13 05:24:20;;;;;;;35.72;19.90;;;;;;;0.98;77.43;100475.09;5062520;28;20043;-70
2023/02/13 05:26:45;;;;;;;32.95;19.35;;;;;;;0.95;77.64;100467.50;5064246;28;20031;-69
2023/02/13 05:29:21;;;;;;;32.00;18.75;;;;;;;0.99;77.87;100464.00;5058213;28;20020;-69
2023/02/13 05:31:55;;;;;;;62.90;30.83;;;;;;;1.14;77.15;100481.53;5057802;28;20122;-69
2023/02/13 05:34:22;;;;;;;146.05;60.63;;;;;;;1.11;76.94;100471.38;5042364;28;20031;-69
2023/02/13 05:36:48;;;;;;;135.90;57.85;;;;;;;1.20;76.60;100483.09;5043715;28;20085;-69
2023/02/13 05:39:14;;;;;;;119.88;54.03;;;;;;;1.10;76.63;100469.69;5057956;28;20040;-69
2023/02/13 05:41:41;;;;;;;136.73;61.33;;;;;;;1.01;77.61;100471.63;5061476;28;20040;-69
2023/02/13 05:44:07;;;;;;;120.90;58.95;;;;;;;1.01;78.35;100472.47;5056060;28;20038;-69
2023/02/13 05:46:32;;;;;;;94.22;49.28;;;;;;;0.82;78.41;100464.41;5047086;28;20028;-69
2023/02/13 05:48:58;;;;;;;92.75;47.28;;;;;;;0.96;78.55;100464.88;5061303;28;20020;-69
2023/02/13 05:51:23;;;;;;;85.80;45.50;;;;;;;0.95;78.26;100464.94;5078656;28;20028;-69
2023/02/13 05:53:48;;;;;;;68.15;38.03;;;;;;;0.96;78.68;100480.25;5080776;28;20020;-69
2023/02/13 05:56:14;;;;;;;62.03;34.40;;;;;;;1.05;78.52;100466.38;5040256;28;20040;-69
2023/02/13 05:58:39;;;;;;;45.95;29.20;;;;;;;0.62;78.29;100416.25;5076981;28;20031;-69
2023/02/13 06:01:05;;;;;;;48.65;25.63;;;;;;;0.84;78.99;100474.59;5060726;28;20107;-69
2023/02/13 06:03:31;;;;;;;43.35;25.02;;;;;;;0.97;78.83;100470.88;5058240;28;20031;-69
2023/02/13 06:05:57;;;;;;;43.90;24.77;;;;;;;1.08;78.51;100480.84;5056652;28;20490;-69
2023/02/13 06:08:23;;;;;;;41.15;22.63;;;;;;;0.92;78.67;100470.13;5053512;28;20027;-69
2023/02/13 06:10:48;;;;;;;37.80;20.98;;;;;;;1.05;78.22;100481.75;5040422;28;20052;-69
2023/02/13 06:13:14;;;;;;;37.38;22.58;;;;;;;0.98;77.34;100471.72;5039196;28;20121;-69
2023/02/13 06:15:40;;;;;;;35.80;20.40;;;;;;;1.05;77.64;100481.75;5058590;28;20020;-69
2023/02/13 06:18:05;;;;;;;35.40;20.52;;;;;;;0.99;78.03;100478.53;5072586;28;20035;-69
2023/02/13 06:20:31;;;;;;;34.60;19.58;;;;;;;0.91;78.69;100477.00;5044345;28;20776;-69
2023/02/13 06:22:57;;;;;;;41.88;21.90;;;;;;;0.88;78.05;100491.59;5048113;28;20032;-69
2023/02/13 06:25:22;;;;;;;40.53;22.23;;;;;;;0.87;78.31;100483.03;5055651;28;20650;-70
2023/02/13 06:27:48;;;;;;;36.38;21.33;;;;;;;0.50;78.35;100412.25;5061730;28;20786;-70
2023/02/13 06:30:14;;;;;;;38.10;20.35;;;;;;;0.98;78.21;100481.94;5080439;28;20031;-69
2023/02/13 06:32:39;;;;;;;37.78;21.05;;;;;;;0.98;78.41;100480.22;5035745;28;20035;-70
2023/02/13 06:35:05;;;;;;;38.90;22.35;;;;;;;0.88;79.40;100481.34;5051591;28;20035;-69
2023/02/13 06:37:31;;;;;;;41.10;22.40;;;;;;;0.80;80.66;100478.94;5048673;28;20474;-69
2023/02/13 06:39:56;;;;;;;38.35;20.70;;;;;;;0.85;80.16;100481.41;5070863;28;20020;-69
2023/02/13 06:42:21;;;;;;;42.08;21.50;;;;;;;0.92;79.96;100477.81;5061542;28;20386;-69
2023/02/13 06:44:47;;;;;;;35.78;19.83;;;;;;;0.93;79.84;100479.50;5033190;28;20032;-69
2023/02/13 06:47:12;;;;;;;37.35;20.20;;;;;;;1.00;79.73;100478.47;5049831;28;20367;-69
2023/02/13 06:49:38;;;;;;;32.78;21.15;;;;;;;1.02;79.80;100479.25;5071267;28;20028;-69
2023/02/13 06:52:03;;;;;;;36.28;20.50;;;;;;;0.94;79.48;100479.47;5040502;28;20078;-68
2023/02/13 06:54:29;;;;;;;37.83;20.80;;;;;;;0.89;80.49;100491.53;5044647;28;20490;-69
2023/02/13 06:56:54;;;;;;;32.17;20.25;;;;;;;0.71;80.24;100463.81;5051433;28;20041;-69
2023/02/13 06:59:19;;;;;;;40.53;19.67;;;;;;;0.90;81.25;100492.41;5056539;28;20031;-69
2023/02/13 07:01:45;;;;;;;40.45;20.60;;;;;;;1.02;80.32;100488.69;5040912;28;20051;-69
2023/02/13 07:04:10;;;;;;;33.63;20.50;;;;;;;0.92;80.29;100482.94;5052606;28;20111;-69
2023/02/13 07:06:36;;;;;;;36.05;19.90;;;;;;;0.87;80.47;100479.66;5050140;28;20027;-68
2023/02/13 07:09:02;;;;;;;34.80;20.75;;;;;;;1.03;80.43;100500.63;5061115;28;20028;-74
2023/02/13 07:11:28;;;;;;;40.75;23.90;;;;;;;1.07;80.78;100494.53;5034642;28;20041;-69
2023/02/13 07:13:53;;;;;;;35.83;22.10;;;;;;;0.62;80.53;100415.38;5056057;28;20036;-69
2023/02/13 07:16:19;;;;;;;41.80;22.90;;;;;;;1.07;80.58;100491.97;5059157;28;20035;-69
2023/02/13 07:18:44;;;;;;;40.50;23.42;;;;;;;1.08;80.88;100497.06;5063313;28;20105;-69
2023/02/13 07:21:09;;;;;;;38.75;22.15;;;;;;;0.94;81.24;100466.66;5064248;28;20123;-69
2023/02/13 07:23:35;;;;;;;36.17;22.70;;;;;;;0.83;80.83;100444.75;5042862;28;20063;-69
2023/02/13 07:26:01;;;;;;;41.95;22.48;;;;;;;1.07;81.36;100495.38;5056443;28;20024;-69
2023/02/13 07:28:27;;;;;;;40.55;22.25;;;;;;;0.71;81.30;100433.09;5054984;28;20575;-69
2023/02/13 07:30:53;;;;;;;37.63;21.83;;;;;;;1.10;81.02;100507.28;5044647;28;20023;-69
2023/02/13 07:33:18;;;;;;;37.15;22.38;;;;;;;1.01;81.92;100505.78;5051407;28;20043;-69
2023/02/13 07:35:48;;;;;;;37.70;21.30;;;;;;;1.11;82.29;100504.69;5077848;28;20917;-68
2023/02/13 07:38:14;;;;;;;;;;;;;;;1.19;81.61;100517.28;5058927;28;20024;-69
2023/02/13 07:40:39;;;;;;;34.13;18.83;;;;;;;0.78;81.24;100449.97;5046717;28;19912;-68
2023/02/13 07:43:04;;;;;;;35.78;21.15;;;;;;;1.15;81.92;100508.00;5066643;28;20033;-69
2023/02/13 07:45:30;;;;;;;33.65;20.30;;;;;;;1.13;82.32;100508.03;5048100;28;20028;-69
2023/02/13 07:47:56;;;;;;;36.35;20.65;;;;;;;0.74;82.50;100446.66;5066265;28;20027;-68
2023/02/13 07:50:21;;;;;;;36.38;20.70;;;;;;;0.94;82.37;100473.50;5056972;28;20040;-68
2023/02/13 07:52:57;;;;;;;35.65;20.30;;;;;;;1.23;82.49;100518.88;5043203;28;20082;-69
2023/02/13 07:55:23;;;;;;;31.08;19.90;;;;;;;1.18;83.28;100515.59;5041166;28;20021;-69
2023/02/13 07:57:49;;;;;;;34.88;20.73;;;;;;;1.25;82.78;100519.69;5056938;28;20139;-69
2023/02/13 08:00:16;;;;;;;38.92;19.80;;;;;;;1.30;83.01;100510.16;5059216;28;20543;-69
2023/02/13 08:02:42;;;;;;;59.08;22.27;;;;;;;1.01;82.91;100451.16;5035533;28;20541;-69
2023/02/13 08:05:07;;;;;;;48.17;22.60;;;;;;;1.29;83.10;100510.19;5052557;28;20036;-69
2023/02/13 08:07:33;;;;;;;46.20;23.77;;;;;;;1.38;83.31;100515.09;5056035;28;20491;-69
2023/02/13 08:12:43;;;;;;;45.28;23.23;;;;;;;1.41;83.92;100512.47;5060850;28;20087;-68
2023/02/13 08:15:11;;;;;;;38.42;22.75;;;;;;;1.46;84.18;100512.31;5056039;28;20123;-69
2023/02/13 08:17:36;;;;;;;43.28;22.77;;;;;;;1.39;84.90;100503.09;5036961;28;20574;-68
2023/02/13 08:20:02;;;;;;;48.53;24.13;;;;;;;1.39;85.64;100501.41;5061978;28;20031;-69
2023/02/13 08:22:27;;;;;;;39.17;22.45;;;;;;;1.42;85.89;100508.16;5063098;28;20032;-69
2023/02/13 08:24:53;;;;;;;42.00;22.48;;;;;;;1.06;85.87;100439.91;5061537;28;20020;-69
2023/02/13 08:27:18;;;;;;;38.10;21.85;;;;;;;1.12;86.23;100441.47;5057178;28;20062;-69
2023/02/13 08:29:44;;;;;;;36.42;20.98;;;;;;;1.51;88.37;100498.50;5060475;28;20020;-69
2023/02/13 08:32:09;;;;;;;38.30;23.00;;;;;;;1.54;89.18;100498.41;5061381;28;20496;-69
2023/02/13 08:34:35;;;;;;;34.38;21.95;;;;;;;1.62;89.03;100502.50;5060375;28;20046;-69
2023/02/13 08:37:01;;;;;;;35.72;22.00;;;;;;;1.60;88.78;100505.09;5038320;28;20028;-69
2023/02/13 08:39:27;;;;;;;40.95;22.50;;;;;;;1.61;89.96;100503.41;5042717;28;20036;-69
2023/02/13 08:41:52;;;;;;;36.20;22.40;;;;;;;1.44;89.40;100457.69;5074369;28;20039;-69
2023/02/13 08:44:17;;;;;;;34.15;21.67;;;;;;;1.76;87.80;100502.13;5045136;28;20036;-69
2023/02/13 08:46:45;;;;;;;39.00;23.20;;;;;;;1.76;88.97;100499.56;5058891;28;20032;-68
2023/02/13 08:49:10;;;;;;;37.60;21.55;;;;;;;1.74;88.66;100499.59;5062485;28;20039;-69
2023/02/13 08:51:36;;;;;;;37.38;22.50;;;;;;;1.75;88.31;100485.88;5063205;28;20031;-68
2023/02/13 08:54:01;;;;;;;35.08;21.52;;;;;;;1.87;88.46;100493.25;5063184;28;20537;-69
2023/02/13 08:56:27;;;;;;;37.95;21.70;;;;;;;1.86;89.38;100494.16;5042196;28;20173;-69
2023/02/13 08:58:53;;;;;;;35.20;22.80;;;;;;;1.93;89.59;100497.34;5047277;28;20472;-68
2023/02/13 09:01:19;;;;;;;37.92;23.08;;;;;;;1.98;90.51;100498.06;5063719;28;20028;-69
2023/02/13 09:03:44;;;;;;;39.05;23.00;;;;;;;2.04;91.16;100484.22;5064889;28;20551;-69
2023/02/13 09:06:10;;;;;;;49.58;23.05;;;;;;;2.05;90.80;100486.75;5057376;28;20028;-68
2023/02/13 09:08:35;;;;;;;37.30;22.15;;;;;;;1.61;92.02;100427.31;5078405;28;20189;-68
2023/02/13 09:11:04;;;;;;;41.05;21.42;;;;;;;1.96;93.46;100479.31;5056367;28;21203;-69
2023/02/13 09:13:34;;;;;;;36.05;21.90;;;;;;;2.08;94.35;100478.09;5057217;28;20099;-69
2023/02/13 09:16:00;;;;;;;42.72;22.40;;;;;;;2.07;95.05;100473.88;5050539;28;20024;-69
2023/02/13 09:18:27;;;;;;;44.05;22.75;;;;;;;2.13;95.29;100481.38;5052511;28;20051;-66
2023/02/13 09:21:22;;;;;;;43.97;23.08;;;;;;;2.19;95.67;100483.78;5032011;28;20040;-68
2023/02/13 09:23:48;;;;;;;45.67;21.08;;;;;;;1.83;95.52;100422.41;5021549;28;20074;-68
2023/02/13 09:26:14;;;;;;;39.92;22.30;;;;;;;2.14;95.77;100477.13;5042126;28;20033;-68
2023/02/13 09:28:40;;;;;;;41.78;21.40;;;;;;;2.29;95.34;100481.78;5058411;28;20030;-69
2023/02/13 09:31:07;;;;;;;37.53;21.80;;;;;;;2.33;95.44;100477.38;5062681;28;20024;-69
2023/02/13 09:33:33;;;;;;;35.38;21.25;;;;;;;2.40;95.60;100482.28;5062218;28;20016;-68
2023/02/13 09:36:05;;;;;;;37.38;21.35;;;;;;;2.32;95.96;100471.44;5053632;28;20037;-69
2023/02/13 09:38:31;;;;;;;34.17;21.08;;;;;;;2.38;96.10;100470.38;5053365;28;20039;-69
2023/02/13 09:41:03;;;;;;;34.80;21.42;;;;;;;2.41;96.73;100476.28;5052971;28;20032;-69
2023/02/13 09:43:50;;;;;;;36.70;21.48;;;;;;;2.43;97.92;100478.81;5059809;28;20032;-69
2023/02/13 09:46:20;;;;;;;33.72;19.95;;;;;;;2.48;98.28;100475.19;5056646;28;20035;-68
2023/02/13 09:48:49;;;;;;;34.50;20.88;;;;;;;2.49;99.00;100463.19;5046556;28;20032;-68
2023/02/13 09:51:19;;;;;;;31.83;20.17;;;;;;;2.51;98.87;100463.97;5044979;28;20420;-68
2023/02/13 09:54:05;;;;;;;30.52;20.40;;;;;;;2.42;98.11;100461.69;5042426;28;20042;-69
2023/02/13 09:56:45;;;;;;;32.55;20.63;;;;;;;1.76;97.98;100358.50;5045254;28;20044;-69
2023/02/13 09:59:32;;;;;;;31.92;20.15;;;;;;;2.40;97.67;100448.91;5052854;28;20028;-69
2023/02/13 10:02:01;;;;;;;31.55;18.92;;;;;;;2.58;97.35;100462.06;5071557;28;20036;-66
2023/02/13 10:04:45;;;;;;;37.92;21.48;;;;;;;2.68;94.89;100458.28;5049672;28;20027;-66
2023/02/13 10:07:33;;;;;;;33.13;19.27;;;;;;;2.79;93.74;100456.25;5067473;28;20032;-69
2023/02/13 10:10:18;;;;;;;29.35;18.65;;;;;;;2.95;90.96;100455.72;5067526;28;20766;-69
2023/02/13 10:12:50;;;;;;;28.27;18.80;;;;;;;3.12;84.87;100453.44;5041977;28;20056;-69
2023/02/13 10:15:20;;;;;;;25.50;15.35;;;;;;;3.14;79.86;100405.38;5051231;28;20020;-68
2023/02/13 10:17:53;;;;;;;27.85;15.95;;;;;;;3.76;76.09;100449.47;5036930;28;20032;-69
2023/02/13 10:20:35;;;;;;;24.33;15.52;;;;;;;3.92;76.63;100445.41;5035989;28;20028;-69
2023/02/13 10:23:24;;;;;;;30.67;16.52;;;;;;;3.90;75.47;100448.97;5078520;28;20043;-68
2023/02/13 10:25:54;;;;;;;26.05;15.02;;;;;;;4.17;72.77;100449.66;5043426;28;20035;-66
2023/02/13 10:28:29;;;;;;;25.90;16.40;;;;;;;4.35;70.43;100454.09;5041789;28;20036;-66
2023/02/13 10:31:17;;;;;;;28.35;15.73;;;;;;;4.52;68.33;100439.69;5056368;28;20052;-66
2023/02/13 10:33:53;;;;;;;25.98;14.85;;;;;;;4.70;67.44;100436.38;5061149;28;20044;-66
2023/02/13 10:36:36;;;;;;;25.80;15.18;;;;;;;4.96;65.58;100435.28;5052215;28;20154;-66
2023/02/13 10:39:05;;;;;;;24.27;14.73;;;;;;;4.71;65.65;100373.66;5058747;28;20035;-66
2023/02/13 10:41:44;;;;;;;24.02;15.52;;;;;;;5.18;65.39;100431.81;5079387;28;20028;-67
2023/02/13 10:44:13;;;;;;;25.13;15.13;;;;;;;4.87;65.40;100378.13;5044118;28;20172;-67
2023/02/13 10:47:05;;;;;;;26.63;14.60;;;;;;;4.78;63.68;100359.59;5057792;28;20032;-66
2023/02/13 10:49:34;;;;;;;24.45;14.57;;;;;;;4.98;63.89;100370.78;5062437;28;20036;-67
2023/02/13 10:52:05;;;;;;;23.52;14.68;;;;;;;5.41;60.88;100412.75;5059832;28;20391;-67
2023/02/13 10:55:05;;;;;;;21.15;13.00;;;;;;;5.51;59.81;100395.97;5078071;28;20028;-68
2023/02/13 10:57:52;;;;;;;26.20;15.52;;;;;;;5.53;60.06;100398.47;5071152;28;20083;-68
2023/02/13 11:00:36;;;;;;;25.67;13.73;;;;;;;5.67;59.89;100393.53;5079096;28;20028;-68
2023/02/13 11:03:02;;;;;;;24.70;13.18;;;;;;;5.85;60.28;100396.19;5080507;28;20028;-68
2023/02/13 11:05:38;;;;;;;23.10;13.57;;;;;;;6.07;58.54;100386.53;5084913;28;20063;-68
2023/02/13 11:08:16;;;;;;;23.48;14.38;;;;;;;6.07;57.76;100380.56;5056077;28;20031;-68
2023/02/13 11:10:41;;;;;;;22.17;13.50;;;;;;;6.29;58.23;100378.59;5050860;28;20027;-68
2023/02/13 11:13:15;;;;;;;21.10;12.07;;;;;;;6.52;56.55;100380.06;5058997;28;20020;-68
2023/02/13 11:15:41;;;;;;;23.17;14.02;;;;;;;6.54;56.53;100357.56;5053477;28;20716;-68
2023/02/13 11:18:18;;;;;;;27.05;13.88;;;;;;;6.70;57.78;100369.75;5061674;28;20063;-67
2023/02/13 11:20:46;;;;;;;24.23;13.77;;;;;;;6.72;58.36;100355.81;5041482;28;20153;-67
2023/02/13 11:23:27;;;;;;;24.08;14.73;;;;;;;6.89;58.32;100365.28;5062031;28;20102;-67
2023/02/13 11:26:07;;;;;;;24.27;14.35;;;;;;;6.89;58.12;100359.31;5060781;28;20104;-66
2023/02/13 11:28:36;;;;;;;25.35;14.25;;;;;;;6.92;58.88;100347.03;5044065;28;20571;-67
2023/02/13 11:31:21;;;;;;;24.20;14.15;;;;;;;7.01;58.54;100344.88;5077250;28;20035;-66
2023/02/13 11:33:47;;;;;;;22.42;14.20;;;;;;;7.09;59.70;100346.16;5054997;28;20032;-67
2023/02/13 11:36:22;;;;;;;25.55;15.13;;;;;;;7.27;58.63;100339.19;5045522;28;20043;-66
2023/02/13 11:39:06;;;;;;;27.88;15.18;;;;;;;7.31;58.24;100342.47;5048126;28;20025;-67
2023/02/13 11:41:40;;;;;;;24.30;14.45;;;;;;;7.30;55.25;100335.59;5055564;28;20660;-67
2023/02/13 11:44:14;;;;;;;25.48;15.63;;;;;;;7.29;58.36;100332.19;5060556;28;20143;-67
2023/02/13 11:46:48;;;;;;;27.98;15.40;;;;;;;7.53;55.56;100333.53;5037987;28;20089;-67
2023/02/13 11:49:22;;;;;;;23.23;13.73;;;;;;;7.76;54.60;100329.69;5057208;28;20082;-69
2023/02/13 11:51:49;;;;;;;22.27;13.52;;;;;;;7.93;53.20;100324.41;5037571;28;20036;-66
2023/02/13 11:54:28;;;;;;;23.75;14.13;;;;;;;8.01;53.14;100323.97;5070507;28;20032;-68
2023/02/13 11:56:59;;;;;;;22.73;13.85;;;;;;;8.06;51.42;100327.97;5052635;28;20039;-69
2023/02/13 11:59:28;;;;;;;23.98;13.38;;;;;;;8.18;51.50;100328.22;5063633;28;20047;-69
2023/02/13 12:02:14;;;;;;;22.42;12.70;;;;;;;7.91;51.18;100261.50;5056993;28;20032;-69
2023/02/13 12:04:40;;;;;;;20.73;12.23;;;;;;;8.49;50.46;100323.88;5068513;28;20035;-69
2023/02/13 12:07:26;;;;;;;19.27;11.95;;;;;;;8.51;50.96;100315.09;5053832;28;20036;-69
2023/02/13 12:10:04;;;;;;;19.17;11.35;;;;;;;8.35;50.21;100265.88;5061009;28;20035;-67